createdAt,value
2018-06-27T00:04:25.410Z,14.30
2018-06-27T00:06:52.901Z,14.20
2018-06-27T00:09:20.467Z,14.30
2018-06-27T00:11:47.974Z,14.30
2018-06-27T00:14:15.359Z,14.30
2018-06-27T00:16:42.738Z,14.30
2018-06-27T00:19:10.135Z,14.10
2018-06-27T00:21:37.976Z,14.20
2018-06-27T00:24:05.387Z,14.10
2018-06-27T00:26:32.822Z,14.00
2018-06-27T00:29:00.260Z,14.00
2018-06-27T00:31:27.659Z,14.00
2018-06-27T00:33:55.078Z,14.00
2018-06-27T00:36:22.569Z,14.00
2018-06-27T00:38:50.071Z,14.00
2018-06-27T00:41:17.719Z,13.90
2018-06-27T00:43:45.138Z,13.90
2018-06-27T00:46:12.610Z,13.90
2018-06-27T00:48:40.060Z,13.90
2018-06-27T00:51:07.476Z,13.90
2018-06-27T00:56:08.046Z,13.70
2018-06-27T01:01:04.049Z,13.70
2018-06-27T01:03:31.430Z,13.70
2018-06-27T01:05:58.905Z,13.60
2018-06-27T01:08:26.749Z,13.60
2018-06-27T01:10:54.205Z,13.60
2018-06-27T01:13:21.643Z,13.60
2018-06-27T01:15:49.072Z,13.60
2018-06-27T01:18:17.887Z,13.60
2018-06-27T01:20:45.568Z,13.60
2018-06-27T01:23:13.039Z,13.60
2018-06-27T01:25:40.525Z,13.50
2018-06-27T01:28:07.979Z,13.50
2018-06-27T01:30:35.756Z,13.50
2018-06-27T01:33:03.314Z,13.50
2018-06-27T01:35:30.805Z,13.50
2018-06-27T01:37:58.308Z,13.50
2018-06-27T01:40:27.268Z,13.50
2018-06-27T01:42:54.739Z,13.50
2018-06-27T01:45:22.223Z,13.40
2018-06-27T01:47:49.664Z,13.40
2018-06-27T01:50:17.095Z,13.40
2018-06-27T01:52:45.151Z,13.40
2018-06-27T01:55:12.615Z,13.40
2018-06-27T01:57:40.167Z,13.40
2018-06-27T02:00:07.795Z,13.40
2018-06-27T02:02:35.662Z,13.40
2018-06-27T02:05:03.292Z,13.40
2018-06-27T02:07:30.768Z,13.40
2018-06-27T02:09:58.253Z,13.40
2018-06-27T02:12:25.663Z,13.40
2018-06-27T02:14:53.125Z,13.40
2018-06-27T02:17:20.748Z,13.40
2018-06-27T02:19:48.226Z,13.40
2018-06-27T02:22:15.720Z,13.40
2018-06-27T02:24:43.126Z,13.50
2018-06-27T02:27:10.584Z,13.30
2018-06-27T02:29:38.023Z,13.30
2018-06-27T02:32:05.499Z,13.30
2018-06-27T02:34:32.996Z,13.40
2018-06-27T02:37:00.533Z,13.30
2018-06-27T02:39:27.989Z,13.30
2018-06-27T02:41:55.416Z,13.20
2018-06-27T02:44:22.944Z,13.30
2018-06-27T02:46:50.411Z,13.20
2018-06-27T02:49:17.827Z,13.20
2018-06-27T02:51:45.255Z,13.10
2018-06-27T02:54:12.695Z,13.10
2018-06-27T02:56:40.971Z,13.10
2018-06-27T02:59:08.411Z,13.10
2018-06-27T03:01:35.931Z,13.10
2018-06-27T03:04:03.402Z,13.00
2018-06-27T03:06:30.870Z,13.00
2018-06-27T03:08:58.271Z,12.90
2018-06-27T03:11:25.692Z,12.90
2018-06-27T03:13:53.216Z,12.90
2018-06-27T03:16:20.767Z,12.80
2018-06-27T03:18:51.054Z,12.90
2018-06-27T03:21:18.572Z,12.90
2018-06-27T03:23:46.045Z,12.90
2018-06-27T03:26:13.490Z,12.80
2018-06-27T03:28:40.952Z,12.80
2018-06-27T03:31:08.456Z,12.80
2018-06-27T03:33:35.977Z,12.80
2018-06-27T03:36:03.464Z,12.70
2018-06-27T03:38:30.912Z,12.60
2018-06-27T03:40:58.339Z,12.70
2018-06-27T03:43:25.980Z,12.80
2018-06-27T03:45:53.470Z,12.80
2018-06-27T03:48:20.890Z,12.80
2018-06-27T03:50:48.404Z,12.80
2018-06-27T03:53:15.859Z,12.70
2018-06-27T03:55:43.395Z,12.70
2018-06-27T03:58:10.968Z,12.70
2018-06-27T04:00:38.459Z,12.70
2018-06-27T04:03:05.911Z,12.70
2018-06-27T04:05:33.313Z,12.80
2018-06-27T04:08:00.767Z,12.90
2018-06-27T04:10:28.215Z,12.90
2018-06-27T04:12:55.765Z,13.00
2018-06-27T04:15:23.299Z,13.00
2018-06-27T04:17:51.521Z,13.20
2018-06-27T04:20:19.165Z,13.20
2018-06-27T04:22:46.650Z,13.30
2018-06-27T04:25:14.612Z,13.20
2018-06-27T04:27:42.095Z,13.40
2018-06-27T04:30:09.552Z,13.50
2018-06-27T04:32:37.107Z,13.50
2018-06-27T04:35:04.615Z,13.60
2018-06-27T04:37:32.077Z,13.70
2018-06-27T04:39:59.454Z,13.80
2018-06-27T04:42:26.913Z,13.80
2018-06-27T04:44:56.896Z,13.90
2018-06-27T04:47:24.480Z,14.10
2018-06-27T04:49:52.239Z,14.30
2018-06-27T04:52:19.657Z,14.70
2018-06-27T04:54:47.103Z,15.20
2018-06-27T04:57:14.493Z,15.60
2018-06-27T04:59:41.939Z,15.90
2018-06-27T05:02:09.334Z,16.10
2018-06-27T05:04:36.705Z,16.40
2018-06-27T05:07:04.591Z,16.60
2018-06-27T05:09:31.996Z,16.60
2018-06-27T05:11:59.376Z,16.50
2018-06-27T05:14:26.867Z,16.70
2018-06-27T05:16:54.343Z,16.90
2018-06-27T05:19:21.679Z,17.20
2018-06-27T05:21:49.164Z,17.10
2018-06-27T05:24:16.580Z,17.20
2018-06-27T05:26:44.112Z,17.10
2018-06-27T05:29:11.587Z,17.40
2018-06-27T05:31:38.998Z,17.60
2018-06-27T05:34:06.557Z,17.70
2018-06-27T05:36:34.027Z,17.80
2018-06-27T05:39:01.840Z,17.80
2018-06-27T05:41:29.316Z,17.50
2018-06-27T05:43:56.783Z,17.50
2018-06-27T05:46:24.353Z,17.40
2018-06-27T05:48:53.555Z,17.30
2018-06-27T05:51:21.120Z,17.10
2018-06-27T05:53:48.599Z,16.90
2018-06-27T05:56:16.048Z,16.80
2018-06-27T05:58:43.515Z,16.80
2018-06-27T06:01:11.336Z,16.80
2018-06-27T06:03:38.784Z,16.70
2018-06-27T06:06:06.229Z,16.70
2018-06-27T06:08:33.673Z,16.50
2018-06-27T06:11:01.145Z,16.70
2018-06-27T06:13:28.568Z,16.70
2018-06-27T06:15:55.988Z,16.70
2018-06-27T06:18:23.448Z,16.70
2018-06-27T06:20:50.828Z,16.70
2018-06-27T06:23:18.306Z,16.70
2018-06-27T06:25:46.373Z,16.70
2018-06-27T06:28:13.784Z,16.80
2018-06-27T06:30:41.255Z,16.90
2018-06-27T06:33:08.623Z,17.00
2018-06-27T06:35:36.033Z,17.10
2018-06-27T06:38:03.544Z,17.20
2018-06-27T06:40:30.935Z,17.30
2018-06-27T06:42:58.290Z,17.30
2018-06-27T06:45:25.768Z,17.30
2018-06-27T06:47:53.561Z,17.20
2018-06-27T06:50:21.010Z,17.30
2018-06-27T06:52:48.400Z,17.40
2018-06-27T06:55:15.863Z,17.50
2018-06-27T06:57:43.319Z,17.60
2018-06-27T07:00:10.748Z,17.50
2018-06-27T07:02:38.136Z,17.50
2018-06-27T07:05:05.772Z,17.70
2018-06-27T07:07:33.180Z,17.80
2018-06-27T07:10:00.584Z,17.90
2018-06-27T07:12:27.940Z,18.00
2018-06-27T07:14:55.482Z,18.00
2018-06-27T07:17:22.867Z,18.10
2018-06-27T07:19:50.381Z,18.20
2018-06-27T07:22:17.780Z,18.10
2018-06-27T07:24:45.603Z,18.30
2018-06-27T07:27:13.000Z,18.40
2018-06-27T07:29:40.503Z,18.60
2018-06-27T07:32:07.894Z,18.70
2018-06-27T07:34:35.268Z,18.70
2018-06-27T07:37:02.690Z,18.50
2018-06-27T07:39:30.072Z,18.50
2018-06-27T07:41:57.576Z,18.70
2018-06-27T07:44:25.204Z,18.90
2018-06-27T07:46:52.596Z,19.20
2018-06-27T07:49:20.080Z,19.20
2018-06-27T07:51:47.767Z,19.10
2018-06-27T07:54:15.251Z,19.20
2018-06-27T07:56:43.177Z,19.10
2018-06-27T07:59:10.703Z,19.30
2018-06-27T08:01:38.457Z,19.40
2018-06-27T08:04:06.380Z,19.40
2018-06-27T08:06:40.892Z,19.60
2018-06-27T08:09:09.168Z,19.90
2018-06-27T08:11:36.720Z,19.90
2018-06-27T08:14:04.917Z,20.10
2018-06-27T08:16:32.580Z,20.20
2018-06-27T08:18:59.943Z,20.00
2018-06-27T08:21:27.502Z,20.20
2018-06-27T08:23:54.924Z,20.30
2018-06-27T08:26:22.520Z,20.30
2018-06-27T08:28:49.813Z,20.50
2018-06-27T08:31:17.224Z,20.60
2018-06-27T08:33:49.168Z,20.70
2018-06-27T08:36:16.553Z,20.70
2018-06-27T08:38:43.994Z,20.80
2018-06-27T08:41:11.433Z,20.80
2018-06-27T08:43:38.857Z,21.00
2018-06-27T08:46:11.913Z,21.00
2018-06-27T08:48:39.295Z,21.10
2018-06-27T08:51:06.668Z,21.10
2018-06-27T08:53:34.113Z,21.20
2018-06-27T08:56:01.784Z,21.30
2018-06-27T08:58:30.892Z,21.40
2018-06-27T09:01:02.203Z,21.40
2018-06-27T09:03:29.555Z,21.50
2018-06-27T09:05:56.984Z,21.40
2018-06-27T09:08:24.476Z,21.50
2018-06-27T09:10:51.859Z,21.60
2018-06-27T09:13:21.652Z,21.80
2018-06-27T09:15:49.221Z,22.00
2018-06-27T09:18:16.671Z,22.10
2018-06-27T09:20:44.196Z,22.40
2018-06-27T09:23:11.622Z,22.50
2018-06-27T09:25:43.597Z,22.40
2018-06-27T09:28:11.096Z,22.30
2018-06-27T09:30:38.616Z,22.20
2018-06-27T09:33:06.092Z,22.40
2018-06-27T09:35:33.581Z,22.50
2018-06-27T09:38:07.864Z,22.70
2018-06-27T09:40:35.295Z,22.60
2018-06-27T09:43:02.765Z,22.80
2018-06-27T09:47:57.748Z,22.90
2018-06-27T09:50:28.507Z,23.10
2018-06-27T09:52:55.964Z,23.00
2018-06-27T09:55:23.541Z,23.20
2018-06-27T09:57:51.104Z,23.40
2018-06-27T10:00:24.496Z,23.50
2018-06-27T10:05:22.843Z,24.00
2018-06-27T10:07:50.420Z,24.20
2018-06-27T10:10:17.964Z,24.50
2018-06-27T10:12:45.513Z,24.80
2018-06-27T10:15:12.972Z,25.10
2018-06-27T10:17:44.412Z,25.10
2018-06-27T10:20:11.923Z,25.50
2018-06-27T10:22:39.445Z,25.70
2018-06-27T10:25:06.901Z,25.70
2018-06-27T10:27:34.335Z,25.70
2018-06-27T10:30:06.540Z,25.90
2018-06-27T10:32:34.115Z,26.50
2018-06-27T10:35:01.621Z,27.00
2018-06-27T10:37:29.068Z,27.10
2018-06-27T10:39:56.517Z,27.40
2018-06-27T10:42:23.837Z,27.50
2018-06-27T10:44:52.767Z,27.70
2018-06-27T10:47:20.087Z,27.70
2018-06-27T10:49:47.347Z,27.70
2018-06-27T10:55:17.148Z,27.70
2018-06-27T10:57:46.201Z,27.60
2018-06-27T11:02:42.732Z,27.20
2018-06-27T11:05:10.172Z,27.60
2018-06-27T11:07:37.519Z,27.70
2018-06-27T11:10:05.149Z,28.00
2018-06-27T11:12:36.376Z,28.30
2018-06-27T11:15:04.656Z,27.80
2018-06-27T11:17:32.089Z,27.20
2018-06-27T11:19:59.461Z,26.90
2018-06-27T11:22:26.836Z,26.80
2018-06-27T11:24:54.253Z,26.70
2018-06-27T11:27:24.199Z,27.20
2018-06-27T11:29:51.652Z,27.80
2018-06-27T11:32:19.052Z,28.20
2018-06-27T11:34:46.462Z,28.50
2018-06-27T11:37:13.868Z,28.80
2018-06-27T11:39:46.168Z,28.90
2018-06-27T11:42:13.533Z,28.30
2018-06-27T11:44:40.880Z,27.70
2018-06-27T11:47:08.268Z,27.50
2018-06-27T11:49:35.580Z,27.50
2018-06-27T11:52:02.944Z,27.40
2018-06-27T11:54:31.940Z,27.70
2018-06-27T11:56:59.287Z,27.70
2018-06-27T11:59:26.640Z,27.80
2018-06-27T12:01:54.000Z,27.90
2018-06-27T12:04:21.365Z,28.00
2018-06-27T12:06:48.733Z,28.20
2018-06-27T12:09:16.132Z,28.10
2018-06-27T12:14:13.611Z,28.00
2018-06-27T12:16:41.096Z,27.90
2018-06-27T12:19:08.460Z,28.20
2018-06-27T12:24:06.976Z,28.40
2018-06-27T12:29:01.752Z,28.10
2018-06-27T12:31:29.133Z,28.00
2018-06-27T12:33:57.776Z,27.70
2018-06-27T12:36:25.786Z,27.30
2018-06-27T12:38:53.438Z,27.10
2018-06-27T12:41:20.819Z,26.80
2018-06-27T12:43:48.256Z,27.00
2018-06-27T12:46:15.706Z,27.10
2018-06-27T12:48:43.072Z,26.60
2018-06-27T12:51:10.467Z,26.70
2018-06-27T12:53:37.776Z,27.20
2018-06-27T12:56:05.129Z,27.50
2018-06-27T12:58:32.473Z,27.90
2018-06-27T13:00:59.791Z,28.00
2018-06-27T13:03:27.177Z,27.50
2018-06-27T13:05:54.580Z,27.20
2018-06-27T13:08:21.935Z,26.80
2018-06-27T13:10:49.259Z,26.90
2018-06-27T13:13:16.499Z,26.80
2018-06-27T13:15:43.755Z,26.90
2018-06-27T13:18:10.951Z,26.90
2018-06-27T13:20:38.099Z,27.00
2018-06-27T13:25:32.495Z,27.70
2018-06-27T13:28:04.389Z,28.30
2018-06-27T13:30:31.534Z,28.20
2018-06-27T13:32:58.968Z,27.90
2018-06-27T13:35:26.136Z,27.60
2018-06-27T13:37:53.302Z,27.80
2018-06-27T13:40:20.499Z,28.10
2018-06-27T13:42:51.428Z,28.20
2018-06-27T13:45:18.661Z,28.30
2018-06-27T13:47:45.816Z,28.30
2018-06-27T13:50:13.189Z,28.50
2018-06-27T13:52:40.384Z,28.50
2018-06-27T13:55:07.599Z,28.80
2018-06-27T13:57:38.706Z,28.80
2018-06-27T14:00:05.860Z,28.40
2018-06-27T14:02:32.988Z,28.10
2018-06-27T14:05:00.193Z,27.90
2018-06-27T14:07:27.460Z,27.80
2018-06-27T14:09:54.695Z,27.70
2018-06-27T14:12:25.905Z,27.90
2018-06-27T14:14:53.063Z,28.10
2018-06-27T14:17:20.230Z,28.30
2018-06-27T14:19:47.387Z,28.50
2018-06-27T14:22:14.572Z,28.50
2018-06-27T14:24:41.745Z,28.60
2018-06-27T14:27:14.233Z,28.70
2018-06-27T14:29:41.421Z,28.60
2018-06-27T14:32:08.578Z,28.60
2018-06-27T14:34:35.782Z,28.60
2018-06-27T14:37:06.817Z,28.60
2018-06-27T14:39:34.006Z,28.60
2018-06-27T14:42:01.302Z,28.70
2018-06-27T14:44:28.492Z,28.70
2018-06-27T14:46:55.658Z,28.60
2018-06-27T14:51:51.349Z,28.60
2018-06-27T14:54:18.496Z,28.70
2018-06-27T14:56:45.737Z,28.60
2018-06-27T14:59:13.222Z,28.30
2018-06-27T15:01:42.504Z,28.10
2018-06-27T15:04:09.659Z,27.90
2018-06-27T15:06:36.959Z,28.10
2018-06-27T15:09:06.644Z,28.00
2018-06-27T15:11:34.578Z,28.10
2018-06-27T15:14:01.775Z,28.20
2018-06-27T15:16:28.951Z,28.10
2018-06-27T15:18:56.140Z,28.00
2018-06-27T15:21:26.596Z,27.80
2018-06-27T15:23:53.852Z,27.70
2018-06-27T15:26:21.302Z,27.70
2018-06-27T15:28:48.463Z,27.70
2018-06-27T15:31:15.623Z,27.80
2018-06-27T15:33:46.944Z,27.80
2018-06-27T15:36:14.164Z,27.50
2018-06-27T15:38:41.391Z,27.40
2018-06-27T15:41:08.567Z,27.30
2018-06-27T15:43:35.799Z,27.10
2018-06-27T15:46:03.019Z,27.00
2018-06-27T15:48:30.596Z,26.90
2018-06-27T15:50:57.916Z,27.00
2018-06-27T15:53:25.172Z,27.00
2018-06-27T15:55:52.381Z,26.80
2018-06-27T15:58:19.561Z,26.80
2018-06-27T16:00:46.778Z,26.90
2018-06-27T16:03:13.955Z,27.00
2018-06-27T16:05:41.155Z,27.10
2018-06-27T16:08:08.371Z,27.10
2018-06-27T16:10:35.540Z,26.90
2018-06-27T16:13:02.697Z,27.00
2018-06-27T16:15:29.832Z,26.70
2018-06-27T16:17:56.989Z,26.30
2018-06-27T16:20:24.157Z,26.10
2018-06-27T16:22:51.336Z,26.10
2018-06-27T16:25:18.501Z,26.00
2018-06-27T16:27:46.121Z,26.10
2018-06-27T16:30:13.287Z,26.10
2018-06-27T16:32:40.423Z,26.20
2018-06-27T16:35:07.608Z,26.10
2018-06-27T16:37:34.803Z,26.00
2018-06-27T16:40:01.952Z,26.00
2018-06-27T16:42:29.285Z,26.00
2018-06-27T16:44:56.698Z,26.00
2018-06-27T16:47:24.228Z,26.10
2018-06-27T16:49:51.564Z,26.00
2018-06-27T16:52:19.056Z,26.10
2018-06-27T16:54:46.616Z,26.10
2018-06-27T16:57:13.943Z,25.90
2018-06-27T16:59:41.267Z,25.80
2018-06-27T17:02:08.628Z,25.70
2018-06-27T17:04:36.016Z,25.70
2018-06-27T17:07:03.406Z,25.70
2018-06-27T17:09:30.739Z,25.80
2018-06-27T17:11:58.123Z,25.70
2018-06-27T17:14:25.532Z,25.60
2018-06-27T17:16:52.935Z,25.70
2018-06-27T17:19:20.395Z,25.80
2018-06-27T17:21:48.051Z,25.70
2018-06-27T17:26:42.892Z,25.70
2018-06-27T17:29:10.232Z,25.60
2018-06-27T17:31:39.186Z,25.50
2018-06-27T17:34:06.623Z,25.50
2018-06-27T17:36:34.027Z,25.50
2018-06-27T17:39:01.385Z,25.50
2018-06-27T17:41:28.772Z,25.40
2018-06-27T17:43:56.156Z,25.50
2018-06-27T17:46:23.904Z,25.50
2018-06-27T17:48:51.391Z,25.50
2018-06-27T17:51:18.800Z,25.50
2018-06-27T17:53:46.156Z,25.50
2018-06-27T17:56:13.536Z,25.40
2018-06-27T17:58:40.987Z,25.40
2018-06-27T18:01:08.454Z,25.40
2018-06-27T18:03:35.819Z,25.20
2018-06-27T18:06:03.280Z,25.20
2018-06-27T18:08:30.669Z,25.00
2018-06-27T18:10:58.023Z,25.10
2018-06-27T18:13:25.584Z,25.10
2018-06-27T18:15:52.980Z,25.10
2018-06-27T18:18:20.395Z,25.10
2018-06-27T18:20:47.800Z,25.00
2018-06-27T18:23:15.156Z,25.10
2018-06-27T18:25:42.664Z,25.00
2018-06-27T18:28:10.255Z,25.00
2018-06-27T18:30:37.608Z,25.10
2018-06-27T18:33:05.099Z,25.20
2018-06-27T18:35:32.422Z,25.10
2018-06-27T18:37:59.876Z,25.10
2018-06-27T18:40:27.296Z,25.00
2018-06-27T18:42:54.905Z,24.90
2018-06-27T18:45:22.387Z,24.90
2018-06-27T18:47:49.764Z,24.90
2018-06-27T18:50:17.127Z,25.00
2018-06-27T18:52:44.530Z,25.00
2018-06-27T18:55:11.868Z,24.70
2018-06-27T18:57:39.288Z,24.80
2018-06-27T19:00:07.965Z,24.70
2018-06-27T19:02:35.406Z,24.70
2018-06-27T19:05:02.816Z,24.60
2018-06-27T19:09:57.607Z,24.50
2018-06-27T19:12:25.078Z,24.50
2018-06-27T19:14:52.424Z,24.40
2018-06-27T19:17:19.771Z,24.40
2018-06-27T19:19:47.132Z,24.30
2018-06-27T19:22:14.481Z,24.30
2018-06-27T19:24:41.828Z,24.30
2018-06-27T19:27:09.165Z,24.20
2018-06-27T19:29:36.487Z,24.20
2018-06-27T19:34:31.316Z,24.10
2018-06-27T19:36:58.676Z,24.10
2018-06-27T19:39:37.458Z,24.00
2018-06-27T19:41:53.520Z,23.90
2018-06-27T19:44:20.919Z,23.90
2018-06-27T19:46:48.435Z,23.80
2018-06-27T19:49:15.768Z,23.80
2018-06-27T19:51:43.132Z,23.80
2018-06-27T19:54:11.232Z,23.70
2018-06-27T19:56:38.625Z,23.70
2018-06-27T19:59:06.043Z,23.70
2018-06-27T20:01:33.439Z,23.70
2018-06-27T20:04:03.043Z,23.60
2018-06-27T20:06:30.431Z,23.50
2018-06-27T20:08:57.859Z,23.40
2018-06-27T20:11:25.351Z,23.30
2018-06-27T20:13:52.901Z,23.30
2018-06-27T20:16:20.301Z,23.30
2018-06-27T20:18:47.779Z,23.20
2018-06-27T20:21:15.229Z,23.00
2018-06-27T20:23:42.637Z,22.90
2018-06-27T20:26:10.006Z,22.80
2018-06-27T20:28:37.342Z,22.70
2018-06-27T20:31:05.023Z,22.60
2018-06-27T20:33:32.289Z,22.60
2018-06-27T20:35:59.793Z,22.50
2018-06-27T20:38:27.192Z,22.40
2018-06-27T20:40:54.495Z,22.40
2018-06-27T20:43:21.834Z,22.30
2018-06-27T20:45:49.286Z,22.20
2018-06-27T20:48:16.640Z,22.10
2018-06-27T20:50:44.025Z,22.00
2018-06-27T20:53:11.372Z,22.00
2018-06-27T20:58:06.187Z,21.80
2018-06-27T21:00:33.596Z,21.80
2018-06-27T21:03:00.936Z,21.70
2018-06-27T21:05:28.424Z,21.60
2018-06-27T21:07:55.785Z,21.60
2018-06-27T21:10:23.292Z,21.50
2018-06-27T21:12:50.796Z,21.40
2018-06-27T21:15:18.166Z,21.40
2018-06-27T21:17:45.527Z,21.30
2018-06-27T21:20:13.040Z,21.20
2018-06-27T21:22:40.392Z,21.20
2018-06-27T21:25:07.909Z,21.10
2018-06-27T21:27:35.274Z,21.00
2018-06-27T21:30:02.633Z,21.00
2018-06-27T21:32:30.020Z,20.90
2018-06-27T21:34:57.325Z,20.80
2018-06-27T21:37:24.927Z,20.80
2018-06-27T21:39:52.316Z,20.70
2018-06-27T21:42:19.679Z,20.60
2018-06-27T21:44:47.323Z,20.60
2018-06-27T21:47:14.685Z,20.50
2018-06-27T21:49:42.081Z,20.50
2018-06-27T21:52:09.612Z,20.30
2018-06-27T21:54:37.060Z,20.30
2018-06-27T21:57:04.532Z,20.20
2018-06-27T21:59:31.852Z,20.20
2018-06-27T22:01:59.248Z,20.10
2018-06-27T22:04:26.720Z,20.00
2018-06-27T22:06:54.142Z,20.00
2018-06-27T22:09:21.532Z,19.90
2018-06-27T22:11:48.972Z,19.90
2018-06-27T22:14:16.341Z,19.90
2018-06-27T22:19:11.179Z,19.80
2018-06-27T22:21:38.578Z,19.80
2018-06-27T22:24:05.903Z,19.70
2018-06-27T22:26:33.256Z,19.70
2018-06-27T22:29:00.604Z,19.60
2018-06-27T22:31:27.984Z,19.60
2018-06-27T22:33:55.248Z,19.50
2018-06-27T22:36:22.620Z,19.50
2018-06-27T22:38:49.965Z,19.50
2018-06-27T22:41:17.348Z,19.40
2018-06-27T22:43:44.663Z,19.40
2018-06-27T22:46:12.068Z,19.40
2018-06-27T22:48:39.407Z,19.40
2018-06-27T22:51:06.744Z,19.40
2018-06-27T22:53:34.100Z,19.30
2018-06-27T22:56:01.459Z,19.20
2018-06-27T22:58:28.800Z,19.20
2018-06-27T23:00:56.139Z,19.20
2018-06-27T23:03:23.500Z,19.10
2018-06-27T23:05:50.780Z,19.00
2018-06-27T23:08:18.188Z,19.00
2018-06-27T23:10:45.499Z,19.00
2018-06-27T23:13:13.010Z,18.90
2018-06-27T23:15:40.436Z,18.90
2018-06-27T23:18:07.836Z,18.80
2018-06-27T23:20:35.181Z,18.80
2018-06-27T23:23:02.584Z,18.70
2018-06-27T23:25:29.939Z,18.70
2018-06-27T23:27:57.349Z,18.60
2018-06-27T23:30:24.831Z,18.50
2018-06-27T23:32:52.163Z,18.50
2018-06-27T23:35:19.504Z,18.40
2018-06-27T23:37:46.864Z,18.50
2018-06-27T23:40:14.239Z,18.40
2018-06-27T23:42:41.577Z,18.30
2018-06-27T23:45:08.945Z,18.20
2018-06-27T23:47:36.263Z,18.20
2018-06-27T23:50:03.829Z,18.20
2018-06-27T23:52:31.232Z,18.10
2018-06-27T23:54:58.571Z,18.00
2018-06-27T23:57:25.907Z,18.00
2018-06-27T23:59:53.261Z,17.90
